Time;durP1;ratioP1;P1;durP2;ratioP2;P2;SDS_P1;SDS_P2;PMS_P1;PMS_P2;Temp;Humidity;BMP_temperature;BMP_pressure;BME280_temperature;BME280_humidity;BME280_pressure;Samples;Min_cycle;Max_cycle;Signal;HPM_P1;HPM_P2
2022/07/20 00:01:42;;;;;;;4.57;2.30;;;25.10;91.60;;;;;;5045153;28;20134;-66
2022/07/20 00:04:07;;;;;;;3.70;2.00;;;25.00;91.60;;;;;;5048978;28;20084;-66
2022/07/20 00:06:33;;;;;;;6.18;2.03;;;24.80;91.60;;;;;;5044675;28;20037;-66
2022/07/20 00:11:44;;;;;;;4.68;2.15;;;25.20;91.20;;;;;;5051344;28;20040;-66
2022/07/20 00:14:09;;;;;;;4.10;2.00;;;25.90;92.10;;;;;;5051395;28;20060;-66
2022/07/20 00:16:35;;;;;;;5.97;2.08;;;24.90;91.90;;;;;;5048297;28;20520;-66
2022/07/20 00:19:01;;;;;;;2.63;1.77;;;24.90;91.80;;;;;;5048416;28;20057;-66
2022/07/20 00:21:27;;;;;;;6.20;3.05;;;24.50;91.90;;;;;;5047642;28;20072;-66
2022/07/20 00:23:53;;;;;;;5.40;2.30;;;26.20;92.40;;;;;;5044918;28;20487;-66
2022/07/20 00:26:18;;;;;;;4.55;2.25;;;24.40;92.10;;;;;;5044962;28;20044;-66
2022/07/20 00:28:44;;;;;;;6.22;2.47;;;24.60;92.10;;;;;;5050370;28;20106;-66
2022/07/20 00:31:10;;;;;;;6.32;2.50;;;24.70;92.20;;;;;;5046129;28;20443;-66
2022/07/20 00:33:36;;;;;;;7.80;1.90;;;24.70;92.20;;;;;;5044785;28;20076;-66
2022/07/20 00:36:02;;;;;;;4.90;2.22;;;24.90;92.10;;;;;;5047252;28;20048;-66
2022/07/20 00:38:28;;;;;;;4.65;2.08;;;24.70;91.90;;;;;;5043610;28;20491;-66
2022/07/20 00:40:56;;;;;;;4.78;1.83;;;24.50;92.00;;;;;;5047888;28;20132;-66
2022/07/20 00:43:21;;;;;;;4.53;2.08;;;24.60;92.20;;;;;;5047177;28;20095;-66
2022/07/20 00:45:47;;;;;;;4.10;1.70;;;24.30;92.20;;;;;;5050874;28;20028;-66
2022/07/20 00:48:13;;;;;;;3.50;1.92;;;24.60;92.10;;;;;;5046868;28;20131;-66
2022/07/20 00:50:39;;;;;;;10.18;2.70;;;24.20;92.20;;;;;;5046501;28;20051;-66
2022/07/20 00:53:05;;;;;;;5.45;2.00;;;24.40;92.20;;;;;;5051309;28;20044;-66
2022/07/20 00:55:31;;;;;;;7.53;2.10;;;24.40;92.20;;;;;;5048559;28;20538;-66
2022/07/20 00:57:56;;;;;;;3.95;2.40;;;24.70;92.20;;;;;;5049588;28;20134;-66
2022/07/20 01:00:22;;;;;;;5.70;2.38;;;24.10;92.10;;;;;;5049248;28;20041;-65
2022/07/20 01:02:47;;;;;;;4.38;1.88;;;24.40;92.40;;;;;;5051763;28;20123;-66
2022/07/20 01:05:16;;;;;;;5.25;2.60;;;24.30;92.30;;;;;;5050900;28;20387;-66
2022/07/20 01:07:44;;;;;;;5.88;2.40;;;24.20;92.40;;;;;;5046538;28;20048;-66
2022/07/20 01:10:11;;;;;;;3.97;2.05;;;24.30;92.40;;;;;;5042986;28;20123;-66
2022/07/20 01:12:43;;;;;;;5.40;2.03;;;24.30;92.30;;;;;;5051164;28;20051;-66
2022/07/20 01:15:09;;;;;;;7.28;2.40;;;24.10;92.30;;;;;;5049416;28;20166;-65
2022/07/20 01:17:35;;;;;;;6.78;3.15;;;23.80;92.20;;;;;;5044628;28;21296;-66
2022/07/20 01:20:01;;;;;;;4.22;2.17;;;24.10;92.30;;;;;;5048554;28;20040;-66
2022/07/20 01:22:26;;;;;;;3.78;2.00;;;24.00;92.20;;;;;;5047471;28;20403;-66
2022/07/20 01:24:52;;;;;;;7.10;2.30;;;23.70;92.30;;;;;;5044190;28;20090;-66
2022/07/20 01:27:17;;;;;;;5.80;2.33;;;24.00;92.40;;;;;;5043583;28;20730;-66
2022/07/20 01:29:45;;;;;;;5.32;2.65;;;24.00;92.60;;;;;;5045660;28;20166;-66
2022/07/20 01:32:11;;;;;;;4.97;2.30;;;23.70;92.70;;;;;;5048723;28;20040;-66
2022/07/20 01:34:36;;;;;;;7.53;2.60;;;23.70;92.70;;;;;;5047659;28;20044;-66
2022/07/20 01:37:02;;;;;;;4.60;2.38;;;24.00;92.60;;;;;;5039587;28;20419;-66
2022/07/20 01:39:28;;;;;;;6.88;2.25;;;23.80;92.70;;;;;;5045192;28;20093;-65
2022/07/20 01:41:54;;;;;;;4.05;2.15;;;23.60;92.80;;;;;;5049839;28;20055;-66
2022/07/20 01:44:23;;;;;;;4.60;2.40;;;23.50;92.60;;;;;;5047711;28;20123;-66
2022/07/20 01:46:50;;;;;;;11.38;3.17;;;23.80;92.80;;;;;;5045234;28;20055;-66
2022/07/20 01:49:16;;;;;;;7.85;2.40;;;23.60;92.80;;;;;;5046321;28;20124;-66
2022/07/20 01:51:43;;;;;;;5.07;2.10;;;23.70;92.90;;;;;;5047660;28;20457;-66
2022/07/20 01:54:09;;;;;;;5.80;3.22;;;23.60;93.00;;;;;;5051156;28;20564;-66
2022/07/20 01:56:34;;;;;;;4.57;2.20;;;23.50;92.90;;;;;;5048312;28;20036;-66
2022/07/20 01:59:00;;;;;;;3.97;2.22;;;23.40;93.00;;;;;;5049462;28;20045;-66
2022/07/20 02:01:26;;;;;;;6.55;2.03;;;23.20;93.00;;;;;;5050913;28;20047;-65
2022/07/20 02:03:52;;;;;;;4.57;2.15;;;23.30;93.10;;;;;;5048369;28;20459;-66
2022/07/20 02:06:17;;;;;;;7.43;2.60;;;23.40;93.10;;;;;;5049333;28;20041;-66
2022/07/20 02:08:43;;;;;;;5.15;2.42;;;23.50;93.20;;;;;;5050059;28;20033;-66
2022/07/20 02:11:08;;;;;;;8.07;2.65;;;23.30;93.10;;;;;;5050527;28;20087;-66
2022/07/20 02:13:36;;;;;;;4.55;2.40;;;24.90;93.70;;;;;;5045603;28;20047;-66
2022/07/20 02:16:14;;;;;;;6.63;2.88;;;23.40;93.30;;;;;;5041504;28;20045;-66
2022/07/20 02:18:50;;;;;;;7.18;2.20;;;23.20;93.40;;;;;;5044498;28;20064;-65
2022/07/20 02:21:17;;;;;;;5.97;2.47;;;23.40;93.40;;;;;;5043416;28;20082;-65
2022/07/20 02:23:44;;;;;;;4.05;2.30;;;23.30;93.50;;;;;;5046981;28;20091;-66
2022/07/20 02:26:09;;;;;;;3.42;1.95;;;23.20;93.70;;;;;;5048822;28;20064;-66
2022/07/20 02:28:35;;;;;;;7.15;2.50;;;22.90;93.70;;;;;;5048809;28;20073;-65
2022/07/20 02:31:02;;;;;;;7.25;2.28;;;23.10;93.80;;;;;;5047427;28;20025;-66
2022/07/20 02:33:28;;;;;;;6.65;2.90;;;23.10;93.90;;;;;;5051532;28;20052;-65
2022/07/20 02:35:53;;;;;;;6.25;1.95;;;22.70;93.80;;;;;;5044964;28;20487;-65
2022/07/20 02:38:19;;;;;;;3.08;2.08;;;22.80;93.80;;;;;;5044874;28;20503;-66
2022/07/20 02:40:44;;;;;;;5.40;2.25;;;22.60;93.80;;;;;;5043961;28;20052;-66
2022/07/20 02:43:10;;;;;;;8.23;2.35;;;22.70;93.90;;;;;;5049277;28;20548;-65
2022/07/20 02:45:36;;;;;;;4.28;2.60;;;24.00;94.30;;;;;;5049406;28;20048;-65
2022/07/20 02:48:04;;;;;;;5.45;2.80;;;22.80;94.20;;;;;;5043693;28;20044;-65
2022/07/20 02:50:36;;;;;;;9.07;2.55;;;22.70;94.00;;;;;;5041543;28;20059;-65
2022/07/20 02:53:03;;;;;;;5.95;3.03;;;22.50;93.60;;;;;;5048849;28;20040;-65
2022/07/20 02:55:29;;;;;;;6.63;2.40;;;22.40;94.20;;;;;;5047691;28;20041;-65
2022/07/20 02:57:54;;;;;;;8.20;3.33;;;22.80;94.50;;;;;;5047347;28;20821;-65
2022/07/20 03:00:20;;;;;;;9.93;2.40;;;22.50;94.50;;;;;;5048084;28;20510;-66
2022/07/20 03:02:49;;;;;;;11.38;2.78;;;22.60;94.20;;;;;;5048920;28;20032;-66
2022/07/20 03:05:15;;;;;;;5.88;2.78;;;22.50;94.30;;;;;;5045879;28;20176;-66
2022/07/20 03:07:41;;;;;;;5.65;2.80;;;22.50;94.10;;;;;;5050458;28;20461;-66
2022/07/20 03:10:07;;;;;;;4.43;2.60;;;22.50;94.20;;;;;;5046839;28;20549;-66
2022/07/20 03:12:33;;;;;;;5.22;2.95;;;22.40;94.00;;;;;;5040381;28;20049;-65
2022/07/20 03:14:59;;;;;;;7.22;3.92;;;22.40;94.00;;;;;;5043441;28;20041;-65
2022/07/20 03:17:24;;;;;;;4.80;2.55;;;22.60;94.20;;;;;;5041065;28;20095;-65
2022/07/20 03:19:50;;;;;;;6.03;2.47;;;22.50;94.30;;;;;;5047175;28;20045;-65
2022/07/20 03:22:16;;;;;;;13.82;3.85;;;22.60;94.40;;;;;;5048976;28;20036;-66
2022/07/20 03:24:41;;;;;;;13.00;3.13;;;22.40;94.30;;;;;;5047616;28;20549;-66
2022/07/20 03:27:07;;;;;;;6.32;2.20;;;22.30;94.10;;;;;;5049373;28;20044;-65
2022/07/20 03:29:33;;;;;;;7.63;2.80;;;22.40;94.20;;;;;;5053495;28;20510;-65
2022/07/20 03:31:59;;;;;;;4.45;2.90;;;22.60;94.20;;;;;;5049080;28;20072;-66
2022/07/20 03:34:24;;;;;;;7.20;2.70;;;22.20;94.10;;;;;;5044883;28;20103;-66
2022/07/20 03:36:50;;;;;;;6.38;2.80;;;22.20;94.00;;;;;;5048208;28;20099;-65
2022/07/20 03:39:16;;;;;;;5.13;3.35;;;22.50;93.90;;;;;;5043884;28;20476;-65
2022/07/20 03:41:42;;;;;;;9.40;3.17;;;22.40;94.00;;;;;;5052653;28;20033;-65
2022/07/20 03:44:08;;;;;;;6.07;2.97;;;23.60;94.20;;;;;;5043736;28;20503;-66
2022/07/20 03:46:33;;;;;;;8.00;3.10;;;22.20;94.00;;;;;;5051221;28;20407;-65
2022/07/20 03:48:59;;;;;;;4.63;2.80;;;22.50;93.90;;;;;;5044764;28;20038;-66
2022/07/20 03:51:25;;;;;;;8.57;3.00;;;22.30;93.90;;;;;;5048687;28;20033;-66
2022/07/20 03:53:50;;;;;;;7.93;2.83;;;22.40;94.00;;;;;;5048877;28;20517;-65
2022/07/20 03:56:19;;;;;;;10.85;2.72;;;22.40;93.50;;;;;;5049836;28;20053;-66
2022/07/20 03:58:45;;;;;;;6.53;2.65;;;22.30;94.20;;;;;;5047135;28;20175;-65
2022/07/20 04:01:11;;;;;;;5.43;2.95;;;22.20;94.10;;;;;;5051384;28;20159;-66
2022/07/20 04:03:36;;;;;;;7.72;3.25;;;22.40;94.00;;;;;;5047241;28;20513;-65
2022/07/20 04:06:02;;;;;;;7.30;3.17;;;22.40;94.10;;;;;;5052232;28;20041;-65
2022/07/20 04:08:28;;;;;;;5.38;2.88;;;22.50;93.90;;;;;;5050269;28;20718;-66
2022/07/20 04:10:54;;;;;;;3.80;2.50;;;22.50;93.80;;;;;;5046274;28;20049;-65
2022/07/20 04:13:20;;;;;;;7.65;3.10;;;22.80;93.90;;;;;;5050653;28;20033;-65
2022/07/20 04:15:45;;;;;;;6.88;3.38;;;22.70;93.80;;;;;;5051932;28;20095;-65
2022/07/20 04:18:11;;;;;;;8.77;3.20;;;22.90;93.90;;;;;;5044876;28;20060;-66
2022/07/20 04:20:37;;;;;;;8.07;2.97;;;22.60;93.90;;;;;;5049746;28;20072;-66
2022/07/20 04:23:03;;;;;;;8.30;3.05;;;24.30;94.30;;;;;;5044781;28;20041;-66
2022/07/20 04:25:29;;;;;;;5.10;2.90;;;22.70;93.90;;;;;;5051078;28;20037;-65
2022/07/20 04:27:54;;;;;;;5.70;2.95;;;22.70;93.80;;;;;;5046694;28;20447;-65
2022/07/20 04:30:20;;;;;;;10.50;2.90;;;22.70;93.80;;;;;;5052439;28;20039;-66
2022/07/20 04:32:45;;;;;;;4.90;3.00;;;23.90;94.30;;;;;;5051146;28;20040;-65
2022/07/20 04:35:11;;;;;;;6.00;3.13;;;22.70;93.80;;;;;;5051903;28;20056;-65
2022/07/20 04:37:37;;;;;;;6.75;2.75;;;22.70;93.70;;;;;;5050268;28;20044;-66
2022/07/20 04:40:05;;;;;;;4.93;2.70;;;22.90;93.80;;;;;;5051123;28;20203;-65
2022/07/20 04:42:31;;;;;;;6.00;2.83;;;23.20;93.50;;;;;;5048595;28;20044;-65
2022/07/20 04:44:56;;;;;;;7.97;2.83;;;23.20;93.80;;;;;;5042067;28;20033;-65
2022/07/20 04:47:22;;;;;;;4.00;2.55;;;23.00;93.70;;;;;;5048443;28;20041;-65
2022/07/20 04:49:48;;;;;;;7.78;2.92;;;22.80;93.70;;;;;;5052201;28;20395;-65
2022/07/20 04:52:13;;;;;;;5.93;2.83;;;23.10;93.80;;;;;;5045808;28;20079;-65
2022/07/20 04:54:40;;;;;;;7.13;2.97;;;23.00;93.80;;;;;;5047854;28;20491;-65
2022/07/20 04:57:05;;;;;;;4.20;2.55;;;23.60;94.20;;;;;;5048432;28;20526;-65
2022/07/20 04:59:31;;;;;;;5.57;2.92;;;23.20;93.50;;;;;;5047001;28;20081;-65
2022/07/20 05:01:56;;;;;;;4.93;2.60;;;23.30;93.50;;;;;;5045778;28;20376;-65
2022/07/20 05:04:22;;;;;;;4.97;3.05;;;23.40;93.70;;;;;;5052071;28;20399;-66
2022/07/20 05:06:48;;;;;;;8.80;3.25;;;23.30;93.80;;;;;;5045832;28;20038;-65
2022/07/20 05:09:13;;;;;;;7.80;2.80;;;23.30;94.10;;;;;;5049682;28;20124;-65
2022/07/20 05:11:39;;;;;;;5.38;2.90;;;23.20;93.90;;;;;;5045558;28;20059;-65
2022/07/20 05:14:05;;;;;;;7.03;2.92;;;23.60;93.60;;;;;;5048245;28;20491;-65
2022/07/20 05:16:30;;;;;;;5.63;2.67;;;24.00;93.20;;;;;;5046968;28;20044;-65
2022/07/20 05:18:56;;;;;;;4.18;2.97;;;24.50;93.10;;;;;;5050293;28;20419;-65
2022/07/20 05:21:21;;;;;;;6.93;2.70;;;24.90;92.60;;;;;;5051000;28;20045;-65
2022/07/20 05:23:47;;;;;;;7.82;2.45;;;25.40;92.70;;;;;;5048648;28;20036;-65
2022/07/20 05:26:13;;;;;;;6.20;3.15;;;25.40;92.30;;;;;;5050488;28;20138;-65
2022/07/20 05:28:41;;;;;;;4.70;2.78;;;25.70;91.90;;;;;;5050370;28;20106;-65
2022/07/20 05:31:08;;;;;;;6.35;2.72;;;25.90;91.60;;;;;;5052781;28;20060;-65
2022/07/20 05:33:37;;;;;;;5.57;3.00;;;26.40;91.80;;;;;;5045499;28;20068;-65
2022/07/20 05:36:03;;;;;;;7.63;3.22;;;25.90;91.40;;;;;;5051252;28;20033;-65
2022/07/20 05:38:29;;;;;;;3.92;2.65;;;25.90;90.90;;;;;;5049362;28;20048;-66
2022/07/20 05:40:55;;;;;;;7.72;3.00;;;25.90;90.90;;;;;;5047874;28;20037;-65
2022/07/20 05:43:21;;;;;;;6.93;2.72;;;25.90;91.40;;;;;;5049800;28;20029;-65
2022/07/20 05:45:47;;;;;;;6.75;2.55;;;25.40;91.30;;;;;;5050282;28;20434;-65
2022/07/20 05:48:13;;;;;;;7.38;2.90;;;25.50;91.70;;;;;;5044581;28;20044;-65
2022/07/20 05:50:39;;;;;;;12.77;3.72;;;25.50;91.80;;;;;;5046652;28;20478;-65
2022/07/20 05:53:06;;;;;;;5.63;2.53;;;25.60;91.90;;;;;;5047984;28;20036;-65
2022/07/20 05:55:33;;;;;;;7.05;2.53;;;25.40;92.00;;;;;;5047495;28;20564;-64
2022/07/20 05:57:58;;;;;;;9.38;3.08;;;25.50;92.40;;;;;;5044195;28;20049;-62
2022/07/20 06:00:24;;;;;;;7.28;2.78;;;25.60;92.40;;;;;;5047328;28;20178;-63
2022/07/20 06:02:49;;;;;;;5.07;2.70;;;26.30;92.10;;;;;;5041854;28;20052;-61
2022/07/20 06:05:15;;;;;;;7.68;2.58;;;26.00;91.70;;;;;;5046655;28;20040;-62
2022/07/20 06:07:40;;;;;;;5.32;2.58;;;26.30;91.60;;;;;;5042809;28;20086;-65
2022/07/20 06:10:10;;;;;;;9.25;3.13;;;26.10;91.50;;;;;;5048630;28;20086;-62
2022/07/20 06:12:36;;;;;;;6.05;3.00;;;26.10;91.50;;;;;;5043645;28;20033;-62
2022/07/20 06:15:02;;;;;;;7.90;3.05;;;26.10;91.60;;;;;;5047464;28;20422;-62
2022/07/20 06:17:38;;;;;;;4.72;3.05;;;26.10;91.70;;;;;;5045406;28;20032;-62
2022/07/20 06:20:07;;;;;;;4.75;3.10;;;26.20;92.10;;;;;;5045509;28;20052;-62
2022/07/20 06:22:34;;;;;;;7.75;3.10;;;26.00;91.80;;;;;;5045445;28;20036;-62
2022/07/20 06:25:00;;;;;;;8.63;2.80;;;27.00;92.10;;;;;;5041313;28;20105;-63
2022/07/20 06:27:26;;;;;;;7.10;3.45;;;26.40;91.90;;;;;;5042588;28;20512;-63
2022/07/20 06:29:51;;;;;;;6.38;2.78;;;26.60;91.80;;;;;;5038087;28;20041;-63
2022/07/20 06:32:17;;;;;;;8.13;2.95;;;26.70;91.90;;;;;;5047902;28;20388;-64
2022/07/20 06:34:45;;;;;;;6.82;3.45;;;27.00;91.80;;;;;;5049189;28;20053;-64
2022/07/20 06:37:11;;;;;;;12.13;3.55;;;27.30;91.80;;;;;;5047282;28;20033;-64
2022/07/20 06:39:36;;;;;;;8.45;3.60;;;27.40;91.70;;;;;;5041560;28;20037;-64
2022/07/20 06:42:02;;;;;;;15.30;5.05;;;27.30;91.70;;;;;;5030414;28;20049;-64
2022/07/20 06:44:28;;;;;;;12.20;4.00;;;27.40;91.70;;;;;;5040583;28;20037;-64
2022/07/20 06:46:53;;;;;;;11.10;3.78;;;27.40;92.00;;;;;;5037494;28;20049;-64
2022/07/20 06:49:19;;;;;;;10.98;4.32;;;27.40;92.20;;;;;;5032262;28;20136;-63
2022/07/20 06:51:45;;;;;;;10.65;4.25;;;27.60;92.40;;;;;;5032345;28;20399;-64
2022/07/20 06:54:10;;;;;;;9.50;4.85;;;27.30;92.70;;;;;;5043809;28;20087;-64
2022/07/20 06:56:36;;;;;;;8.57;4.65;;;27.60;93.20;;;;;;5032055;28;20045;-64
2022/07/20 06:59:01;;;;;;;9.25;4.80;;;27.10;93.60;;;;;;5042783;28;20057;-64
2022/07/20 07:01:27;;;;;;;13.48;6.57;;;27.00;94.20;;;;;;5035888;28;20041;-64
2022/07/20 07:03:53;;;;;;;11.82;5.70;;;26.90;94.60;;;;;;5035691;28;20124;-64
2022/07/20 07:06:18;;;;;;;11.43;6.90;;;27.00;94.90;;;;;;5036076;28;20446;-64
2022/07/20 07:08:44;;;;;;;9.60;6.40;;;27.20;95.40;;;;;;5054653;28;20037;-64
2022/07/20 07:11:09;;;;;;;17.55;6.90;;;28.10;96.10;;;;;;5042255;28;20567;-63
2022/07/20 07:13:35;;;;;;;15.57;7.80;;;27.00;95.80;;;;;;5042550;28;20423;-64
2022/07/20 07:16:00;;;;;;;15.82;8.48;;;26.70;96.10;;;;;;5041891;28;20049;-63
2022/07/20 07:18:28;;;;;;;17.13;9.18;;;27.20;96.60;;;;;;5035110;28;20567;-63
2022/07/20 07:20:54;;;;;;;20.55;9.38;;;27.00;96.90;;;;;;5038955;28;20175;-64
2022/07/20 07:23:20;;;;;;;19.63;9.30;;;27.20;97.30;;;;;;5043494;28;20033;-63
2022/07/20 07:25:45;;;;;;;20.58;10.27;;;26.90;97.60;;;;;;5042901;28;20045;-63
2022/07/20 07:28:11;;;;;;;19.15;11.45;;;26.90;97.90;;;;;;5038206;28;20127;-64
2022/07/20 07:30:36;;;;;;;24.45;12.30;;;27.10;98.60;;;;;;5036047;28;20041;-63
2022/07/20 07:33:02;;;;;;;20.27;12.68;;;27.00;99.30;;;;;;5039009;28;20120;-63
2022/07/20 07:35:27;;;;;;;21.58;12.88;;;26.90;99.30;;;;;;5037429;28;20033;-63
2022/07/20 07:37:53;;;;;;;19.38;12.57;;;27.10;99.90;;;;;;5035016;28;20049;-63
2022/07/20 07:40:18;;;;;;;23.10;13.07;;;27.10;99.90;;;;;;5050130;28;20540;-63
2022/07/20 07:42:44;;;;;;;25.05;13.48;;;27.20;99.90;;;;;;5034977;28;20042;-63
2022/07/20 07:45:10;;;;;;;24.33;14.45;;;27.50;99.90;;;;;;5042385;28;20113;-63
2022/07/20 07:47:36;;;;;;;26.58;14.68;;;27.10;99.90;;;;;;5047045;28;20076;-63
2022/07/20 07:50:02;;;;;;;25.92;14.77;;;29.10;99.90;;;;;;5018084;28;20048;-63
2022/07/20 07:52:28;;;;;;;19.35;13.73;;;27.20;99.90;;;;;;5034487;28;20033;-63
2022/07/20 07:54:53;;;;;;;26.48;14.95;;;27.10;99.90;;;;;;5043998;28;20038;-63
2022/07/20 07:57:19;;;;;;;22.10;14.90;;;27.60;99.90;;;;;;5035379;28;20049;-64
2022/07/20 07:59:44;;;;;;;25.00;15.40;;;27.30;99.90;;;;;;5049160;28;20034;-63
2022/07/20 08:02:10;;;;;;;30.55;16.08;;;27.20;99.90;;;;;;5035271;28;20128;-64
2022/07/20 08:04:36;;;;;;;28.55;16.27;;;27.50;99.90;;;;;;5047152;28;20052;-63
2022/07/20 08:07:01;;;;;;;26.85;16.15;;;27.50;99.90;;;;;;5018039;28;20045;-63
2022/07/20 08:09:29;;;;;;;25.40;16.10;;;27.60;99.90;;;;;;5034156;28;20045;-63
2022/07/20 08:11:55;;;;;;;24.52;16.27;;;27.50;99.90;;;;;;5040777;28;20044;-63
2022/07/20 08:14:20;;;;;;;28.48;16.77;;;27.70;99.90;;;;;;5054330;28;20047;-63
2022/07/20 08:16:46;;;;;;;27.67;17.17;;;27.70;99.90;;;;;;5035754;28;20044;-64
2022/07/20 08:19:11;;;;;;;26.92;18.25;;;27.60;99.90;;;;;;5034399;28;20057;-64
2022/07/20 08:21:38;;;;;;;26.65;17.63;;;27.90;99.90;;;;;;5033760;28;20037;-63
2022/07/20 08:24:04;;;;;;;26.50;18.20;;;28.80;99.90;;;;;;5035221;28;20046;-64
2022/07/20 08:26:30;;;;;;;29.95;17.65;;;27.80;99.90;;;;;;5035019;28;20040;-64
2022/07/20 08:28:55;;;;;;;27.80;17.38;;;27.70;99.90;;;;;;5035106;28;20411;-64
2022/07/20 08:31:21;;;;;;;26.95;16.70;;;27.80;99.90;;;;;;5035058;28;20098;-64
2022/07/20 08:33:47;;;;;;;27.48;17.02;;;29.20;99.90;;;;;;5046605;28;20407;-64
2022/07/20 08:36:15;;;;;;;28.95;17.88;;;27.60;99.90;;;;;;5034892;28;20045;-64
2022/07/20 08:38:43;;;;;;;28.80;18.38;;;27.80;99.90;;;;;;5038281;28;20305;-64
2022/07/20 08:41:09;;;;;;;26.95;16.63;;;27.90;99.90;;;;;;5045949;28;20038;-63
2022/07/20 08:43:35;;;;;;;26.90;17.35;;;28.00;99.90;;;;;;5037755;28;20067;-64
2022/07/20 08:46:02;;;;;;;26.83;18.13;;;28.70;99.90;;;;;;5038378;28;20391;-63
2022/07/20 08:48:27;;;;;;;29.67;17.67;;;27.80;99.90;;;;;;5041819;28;20492;-64
2022/07/20 08:50:53;;;;;;;35.65;20.05;;;28.00;99.90;;;;;;5034391;28;20069;-64
2022/07/20 08:53:19;;;;;;;32.05;19.65;;;27.70;99.90;;;;;;5037208;28;20036;-64
2022/07/20 08:55:48;;;;;;;28.92;18.30;;;28.30;99.90;;;;;;5040146;28;20395;-64
2022/07/20 08:58:14;;;;;;;24.10;17.75;;;27.80;99.90;;;;;;5053502;28;20056;-64
2022/07/20 09:00:39;;;;;;;28.92;19.08;;;29.50;99.90;;;;;;5043003;28;20046;-63
2022/07/20 09:03:07;;;;;;;29.30;18.30;;;28.00;99.90;;;;;;5032834;28;20040;-64
2022/07/20 09:05:36;;;;;;;25.98;18.90;;;27.90;99.90;;;;;;5041317;28;20108;-64
2022/07/20 09:08:03;;;;;;;30.50;20.05;;;27.90;99.90;;;;;;5032436;28;20500;-64
2022/07/20 09:10:35;;;;;;;28.95;19.60;;;27.90;99.90;;;;;;5032736;28;20041;-64
2022/07/20 09:13:13;;;;;;;32.35;20.25;;;28.20;99.90;;;;;;5034963;28;20460;-64
2022/07/20 09:15:42;;;;;;;25.95;17.63;;;28.00;99.90;;;;;;5043926;28;20042;-64
2022/07/20 09:18:20;;;;;;;25.13;17.73;;;28.00;99.90;;;;;;5033858;28;20042;-64
2022/07/20 09:20:54;;;;;;;25.92;16.35;;;27.90;99.90;;;;;;5032681;28;20487;-64
2022/07/20 09:23:31;;;;;;;28.80;16.77;;;28.10;99.90;;;;;;5033438;28;20073;-64
2022/07/20 09:26:03;;;;;;;25.33;16.38;;;28.10;99.90;;;;;;5042666;28;20060;-64
2022/07/20 09:28:40;;;;;;;28.67;16.00;;;28.10;99.90;;;;;;5047578;28;20032;-63
2022/07/20 09:31:12;;;;;;;29.52;15.82;;;28.50;99.90;;;;;;5033625;28;20042;-64
2022/07/20 09:33:38;;;;;;;23.55;15.45;;;28.40;99.90;;;;;;5032011;28;20041;-64
2022/07/20 09:36:05;;;;;;;25.92;16.05;;;28.50;99.90;;;;;;5053317;28;20453;-64
2022/07/20 09:38:40;;;;;;;20.52;14.05;;;29.30;99.90;;;;;;5053490;28;20094;-64
2022/07/20 09:41:30;;;;;;;25.50;15.05;;;29.70;99.90;;;;;;5044464;28;20095;-64
2022/07/20 09:43:57;;;;;;;23.90;13.70;;;28.20;99.90;;;;;;5048042;28;20079;-64
2022/07/20 09:46:25;;;;;;;22.85;13.65;;;28.10;99.90;;;;;;5051812;28;20037;-64
2022/07/20 09:48:53;;;;;;;23.40;14.05;;;28.20;99.90;;;;;;5036702;28;20045;-64
2022/07/20 09:51:32;;;;;;;20.38;13.20;;;28.30;99.90;;;;;;5040529;28;20037;-64
2022/07/20 09:54:09;;;;;;;19.88;13.40;;;28.30;99.90;;;;;;5038545;28;20077;-64
2022/07/20 09:56:41;;;;;;;25.42;13.75;;;28.30;99.90;;;;;;5043358;28;20129;-64
2022/07/20 09:59:08;;;;;;;22.77;12.50;;;28.70;99.90;;;;;;5047516;28;20049;-64
2022/07/20 10:01:46;;;;;;;21.25;11.00;;;28.80;99.90;;;;;;5032781;28;20045;-64
2022/07/20 10:04:14;;;;;;;17.60;10.52;;;28.80;99.90;;;;;;5019880;28;20041;-63
2022/07/20 10:06:44;;;;;;;17.50;10.27;;;28.60;99.90;;;;;;5034158;28;20396;-64
2022/07/20 10:09:11;;;;;;;22.23;10.27;;;29.10;99.90;;;;;;5031911;28;20044;-64
2022/07/20 10:11:37;;;;;;;19.35;10.18;;;28.80;99.90;;;;;;5046892;28;20049;-64
2022/07/20 10:14:04;;;;;;;16.80;10.27;;;29.10;99.90;;;;;;5033763;28;20475;-63
2022/07/20 10:16:37;;;;;;;20.48;10.52;;;29.10;99.90;;;;;;5038764;28;20053;-64
2022/07/20 10:19:05;;;;;;;17.67;10.90;;;29.00;99.90;;;;;;5052936;28;20051;-64
2022/07/20 10:21:46;;;;;;;16.27;9.60;;;29.40;99.90;;;;;;5036258;28;20045;-64
2022/07/20 10:24:30;;;;;;;16.05;10.75;;;29.10;99.90;;;;;;5035318;28;20552;-63
2022/07/20 10:27:25;;;;;;;17.25;9.75;;;29.20;99.90;;;;;;5035177;28;20079;-63
2022/07/20 10:29:54;;;;;;;26.13;10.70;;;29.20;99.90;;;;;;5043691;28;20120;-63
2022/07/20 10:32:28;;;;;;;19.63;10.57;;;31.10;99.90;;;;;;5031286;28;20038;-63
2022/07/20 10:34:55;;;;;;;15.88;9.95;;;30.50;99.90;;;;;;5040521;28;20198;-64
2022/07/20 10:37:38;;;;;;;19.35;11.13;;;31.10;99.90;;;;;;5044887;28;20049;-64
2022/07/20 10:40:23;;;;;;;19.55;10.38;;;29.20;99.40;;;;;;5038623;28;20503;-63
2022/07/20 10:43:10;;;;;;;16.95;9.82;;;29.90;99.90;;;;;;5032571;28;20041;-63
2022/07/20 10:45:36;;;;;;;16.42;9.05;;;29.60;99.30;;;;;;5044108;28;20099;-64
2022/07/20 10:48:11;;;;;;;19.75;10.40;;;29.30;99.90;;;;;;5050069;28;20132;-63
2022/07/20 10:50:37;;;;;;;16.35;10.80;;;31.10;99.90;;;;;;5034137;28;20053;-64
2022/07/20 10:53:15;;;;;;;21.35;12.75;;;29.60;99.30;;;;;;5040958;28;20048;-64
2022/07/20 10:55:44;;;;;;;15.57;10.63;;;31.30;99.90;;;;;;5048423;28;20033;-64
2022/07/20 10:58:22;;;;;;;18.63;10.25;;;31.20;99.90;;;;;;5035557;28;20045;-64
2022/07/20 11:01:18;;;;;;;18.63;10.25;;;29.80;99.40;;;;;;5039693;28;20053;-64
2022/07/20 11:03:46;;;;;;;16.23;9.63;;;29.40;98.30;;;;;;5042095;28;20111;-64
2022/07/20 11:06:21;;;;;;;19.05;10.75;;;29.50;99.20;;;;;;5049697;28;20039;-64
2022/07/20 11:08:58;;;;;;;15.50;10.02;;;31.20;99.70;;;;;;5046771;28;20068;-64
2022/07/20 11:11:30;;;;;;;13.15;9.45;;;29.60;98.80;;;;;;5047464;28;20082;-64
2022/07/20 11:13:55;;;;;;;14.05;7.65;;;29.80;99.30;;;;;;5051041;28;20466;-64
2022/07/20 11:16:23;;;;;;;15.15;7.35;;;29.70;98.60;;;;;;5048715;28;20066;-64
2022/07/20 11:18:50;;;;;;;14.98;8.68;;;29.50;98.30;;;;;;5046027;28;20090;-64
2022/07/20 11:21:17;;;;;;;17.15;8.32;;;29.70;98.40;;;;;;5038207;28;20045;-63
2022/07/20 11:23:50;;;;;;;13.73;7.47;;;31.30;98.50;;;;;;5044128;28;20525;-64
2022/07/20 11:26:18;;;;;;;15.45;7.68;;;29.70;97.20;;;;;;5046959;28;20068;-64
2022/07/20 11:29:01;;;;;;;13.52;7.75;;;29.70;97.90;;;;;;5045301;28;20509;-63
2022/07/20 11:31:29;;;;;;;23.13;8.27;;;29.70;97.80;;;;;;5038718;28;20090;-63
2022/07/20 11:33:57;;;;;;;21.52;8.82;;;29.80;97.40;;;;;;5046688;28;20083;-64
2022/07/20 11:36:34;;;;;;;14.80;8.52;;;29.70;96.80;;;;;;5044341;28;20051;-63
2022/07/20 11:39:06;;;;;;;10.70;8.80;;;31.10;97.30;;;;;;5044257;28;20381;-63
2022/07/20 11:41:34;;;;;;;14.93;8.23;;;29.60;97.00;;;;;;5045414;28;20519;-64
2022/07/20 11:44:01;;;;;;;14.02;7.72;;;30.80;97.80;;;;;;5047654;28;20047;-63
2022/07/20 11:46:36;;;;;;;19.90;9.38;;;30.30;97.60;;;;;;5050066;28;20060;-64
2022/07/20 11:49:07;;;;;;;22.58;8.88;;;29.70;97.60;;;;;;5047080;28;20091;-63
2022/07/20 11:51:35;;;;;;;13.98;8.38;;;31.10;98.00;;;;;;5047889;28;20119;-64
2022/07/20 11:54:02;;;;;;;16.35;7.72;;;30.00;98.30;;;;;;5051368;28;20041;-64
2022/07/20 11:56:29;;;;;;;12.40;6.80;;;29.90;98.00;;;;;;5049703;28;20499;-64
2022/07/20 11:59:01;;;;;;;13.10;8.73;;;31.60;98.20;;;;;;5036180;28;20503;-64
2022/07/20 12:01:32;;;;;;;11.65;6.00;;;31.20;99.00;;;;;;5042658;28;20495;-64
2022/07/20 12:04:10;;;;;;;8.63;6.07;;;29.90;97.60;;;;;;5052974;28;20036;-64
2022/07/20 12:06:39;;;;;;;12.70;7.10;;;29.50;97.70;;;;;;5051409;28;20037;-64
2022/07/20 12:09:10;;;;;;;10.35;6.65;;;31.10;98.40;;;;;;5052808;28;20041;-64
2022/07/20 12:11:52;;;;;;;16.38;7.35;;;30.50;98.50;;;;;;5050728;28;20080;-64
2022/07/20 12:14:45;;;;;;;15.68;8.40;;;29.60;98.30;;;;;;5049282;28;20484;-64
2022/07/20 12:17:27;;;;;;;11.18;6.95;;;29.60;98.50;;;;;;5050901;28;20044;-64
2022/07/20 12:19:55;;;;;;;9.82;6.72;;;29.60;97.50;;;;;;5050216;28;20044;-64
2022/07/20 12:22:30;;;;;;;14.00;7.93;;;29.70;98.20;;;;;;5046363;28;20123;-64
2022/07/20 12:25:05;;;;;;;12.13;7.55;;;29.70;98.00;;;;;;5051521;28;20045;-64
2022/07/20 12:27:32;;;;;;;13.88;8.23;;;29.60;98.20;;;;;;5046684;28;20029;-64
2022/07/20 12:29:59;;;;;;;11.23;7.60;;;29.70;98.80;;;;;;5031992;28;20040;-64
2022/07/20 12:32:42;;;;;;;14.02;7.75;;;29.90;98.60;;;;;;5040855;28;20272;-64
2022/07/20 12:35:08;;;;;;;12.00;8.10;;;29.80;98.30;;;;;;5049079;28;20112;-64
2022/07/20 12:37:54;;;;;;;16.08;8.50;;;29.70;98.20;;;;;;5049034;28;20041;-64
2022/07/20 12:40:43;;;;;;;11.65;7.97;;;29.60;98.70;;;;;;5045118;28;20432;-64
2022/07/20 12:43:30;;;;;;;15.18;7.68;;;29.90;98.30;;;;;;5044825;28;20037;-64
2022/07/20 12:45:59;;;;;;;11.77;8.10;;;30.00;98.00;;;;;;5022499;28;20063;-64